sensor_id;sensor_type;location;lat;lon;timestamp;pressure;altitude;pressure_sealevel;temperature;humidity
57094;BME280;42970;50.996;3.706;2023-04-01T00:00:19;73432.00;;;-146.65;89.92
57094;BME280;42970;50.996;3.706;2023-04-01T00:02:44;73427.97;;;-146.65;89.48
57094;BME280;42970;50.996;3.706;2023-04-01T00:05:11;73432.00;;;-146.65;89.71
57094;BME280;42970;50.996;3.706;2023-04-01T00:07:37;73442.09;;;-146.65;89.85
57094;BME280;42970;50.996;3.706;2023-04-01T00:10:05;73442.09;;;-146.65;89.95
57094;BME280;42970;50.996;3.706;2023-04-01T00:12:31;73430.00;;;-146.65;89.76
57094;BME280;42970;50.996;3.706;2023-04-01T00:14:56;73434.03;;;-146.65;89.41
57094;BME280;42970;50.996;3.706;2023-04-01T00:17:22;73452.16;;;-146.65;90.19
57094;BME280;42970;50.996;3.706;2023-04-01T00:19:47;73434.03;;;-146.65;89.41
57094;BME280;42970;50.996;3.706;2023-04-01T00:22:13;73427.97;;;-146.65;89.18
57094;BME280;42970;50.996;3.706;2023-04-01T00:24:41;73434.03;;;-146.65;88.89
57094;BME280;42970;50.996;3.706;2023-04-01T00:27:07;73440.06;;;-146.65;89.25
57094;BME280;42970;50.996;3.706;2023-04-01T00:29:33;73419.91;;;-146.65;88.90
57094;BME280;42970;50.996;3.706;2023-04-01T00:31:59;73438.06;;;-146.65;89.36
57094;BME280;42970;50.996;3.706;2023-04-01T00:34:24;73427.97;;;-146.65;88.55
57094;BME280;42970;50.996;3.706;2023-04-01T00:36:50;73432.00;;;-146.65;88.71
57094;BME280;42970;50.996;3.706;2023-04-01T00:39:17;73440.06;;;-146.65;88.81
57094;BME280;42970;50.996;3.706;2023-04-01T00:41:42;73440.06;;;-146.65;88.48
57094;BME280;42970;50.996;3.706;2023-04-01T00:44:11;73436.03;;;-146.65;88.60
57094;BME280;42970;50.996;3.706;2023-04-01T00:46:39;73452.16;;;-146.65;88.84
57094;BME280;42970;50.996;3.706;2023-04-01T00:49:05;73446.13;;;-146.65;88.65
57094;BME280;42970;50.996;3.706;2023-04-01T00:51:30;73468.28;;;-146.65;89.18
57094;BME280;42970;50.996;3.706;2023-04-01T00:53:57;73474.34;;;-146.65;88.79
57094;BME280;42970;50.996;3.706;2023-04-01T00:56:45;73484.41;;;-146.65;89.32
57094;BME280;42970;50.996;3.706;2023-04-01T00:59:20;73480.38;;;-146.65;89.17
57094;BME280;42970;50.996;3.706;2023-04-01T01:01:46;73468.28;;;-146.65;88.68
57094;BME280;42970;50.996;3.706;2023-04-01T01:04:21;73480.38;;;-146.65;88.54
57094;BME280;42970;50.996;3.706;2023-04-01T01:06:54;73500.53;;;-146.65;89.21
57094;BME280;42970;50.996;3.706;2023-04-01T01:12:16;73504.56;;;-146.65;88.99
57094;BME280;42970;50.996;3.706;2023-04-01T01:27:27;73528.78;;;-146.65;89.58
57094;BME280;42970;50.996;3.706;2023-04-01T01:37:30;73542.88;;;-146.65;89.83
57094;BME280;42970;50.996;3.706;2023-04-01T01:39:56;73544.91;;;-146.65;89.93
57094;BME280;42970;50.996;3.706;2023-04-01T01:42:23;73536.84;;;-146.65;89.96
57094;BME280;42970;50.996;3.706;2023-04-01T01:44:50;73542.88;;;-146.65;89.85
57094;BME280;42970;50.996;3.706;2023-04-01T01:47:17;73561.03;;;-146.65;90.29
57094;BME280;42970;50.996;3.706;2023-04-01T01:49:44;73550.94;;;-146.65;89.94
57094;BME280;42970;50.996;3.706;2023-04-01T01:52:10;73542.88;;;-146.65;89.98
57094;BME280;42970;50.996;3.706;2023-04-01T01:54:36;73559.00;;;-146.65;90.32
57094;BME280;42970;50.996;3.706;2023-04-01T01:57:06;73546.91;;;-146.65;90.54
57094;BME280;42970;50.996;3.706;2023-04-01T01:59:33;73571.09;;;-146.65;90.78
57094;BME280;42970;50.996;3.706;2023-04-01T02:02:00;73554.97;;;-146.65;91.01
57094;BME280;42970;50.996;3.706;2023-04-01T02:04:32;73561.03;;;-146.65;90.89
57094;BME280;42970;50.996;3.706;2023-04-01T02:07:00;73563.03;;;-146.65;90.76
57094;BME280;42970;50.996;3.706;2023-04-01T02:09:27;73557.00;;;-146.65;90.66
57094;BME280;42970;50.996;3.706;2023-04-01T02:11:53;73569.09;;;-146.65;90.83
57094;BME280;42970;50.996;3.706;2023-04-01T02:14:24;73552.97;;;-146.65;90.77
57094;BME280;42970;50.996;3.706;2023-04-01T02:19:16;73573.13;;;-146.65;90.75
57094;BME280;42970;50.996;3.706;2023-04-01T02:21:47;73569.09;;;-146.65;90.86
57094;BME280;42970;50.996;3.706;2023-04-01T02:24:14;73571.09;;;-146.65;90.63
57094;BME280;42970;50.996;3.706;2023-04-01T02:26:41;73573.13;;;-146.65;90.23
57094;BME280;42970;50.996;3.706;2023-04-01T02:29:06;73585.22;;;-146.65;90.57
57094;BME280;42970;50.996;3.706;2023-04-01T02:31:33;73579.16;;;-146.65;90.33
57094;BME280;42970;50.996;3.706;2023-04-01T02:33:58;73577.16;;;-146.65;90.16
57094;BME280;42970;50.996;3.706;2023-04-01T02:36:24;73585.22;;;-146.65;90.39
57094;BME280;42970;50.996;3.706;2023-04-01T02:38:49;73591.25;;;-146.65;90.12
57094;BME280;42970;50.996;3.706;2023-04-01T02:41:15;73579.16;;;-146.65;89.80
57094;BME280;42970;50.996;3.706;2023-04-01T02:43:41;73579.16;;;-146.65;89.33
57094;BME280;42970;50.996;3.706;2023-04-01T02:46:06;73573.13;;;-146.65;89.33
57094;BME280;42970;50.996;3.706;2023-04-01T02:48:31;73571.09;;;-146.65;88.68
57094;BME280;42970;50.996;3.706;2023-04-01T02:50:57;73581.19;;;-146.65;88.15
57094;BME280;42970;50.996;3.706;2023-04-01T02:53:22;73583.19;;;-146.65;88.03
57094;BME280;42970;50.996;3.706;2023-04-01T02:55:47;73561.03;;;-146.65;87.27
57094;BME280;42970;50.996;3.706;2023-04-01T02:58:15;73571.09;;;-146.65;87.29
57094;BME280;42970;50.996;3.706;2023-04-01T03:00:41;73579.16;;;-146.65;87.37
57094;BME280;42970;50.996;3.706;2023-04-01T03:03:06;73593.28;;;-146.65;87.42
57094;BME280;42970;50.996;3.706;2023-04-01T03:05:31;73585.22;;;-146.65;87.35
57094;BME280;42970;50.996;3.706;2023-04-01T03:07:57;73589.25;;;-146.65;87.44
57094;BME280;42970;50.996;3.706;2023-04-01T03:10:22;73581.19;;;-146.65;87.26
57094;BME280;42970;50.996;3.706;2023-04-01T03:12:47;73593.28;;;-146.65;87.64
57094;BME280;42970;50.996;3.706;2023-04-01T03:15:13;73613.44;;;-146.65;88.29
57094;BME280;42970;50.996;3.706;2023-04-01T03:17:40;73609.41;;;-146.65;88.24
57094;BME280;42970;50.996;3.706;2023-04-01T03:20:05;73613.44;;;-146.65;89.00
57094;BME280;42970;50.996;3.706;2023-04-01T03:22:31;73637.63;;;-146.65;90.11
57094;BME280;42970;50.996;3.706;2023-04-01T03:24:56;73627.56;;;-146.65;89.68
57094;BME280;42970;50.996;3.706;2023-04-01T03:27:22;73639.66;;;-146.65;90.04
57094;BME280;42970;50.996;3.706;2023-04-01T03:29:48;73637.63;;;-146.65;89.74
57094;BME280;42970;50.996;3.706;2023-04-01T03:32:13;73641.66;;;-146.65;90.04
57094;BME280;42970;50.996;3.706;2023-04-01T03:34:38;73625.53;;;-146.65;90.22
57094;BME280;42970;50.996;3.706;2023-04-01T03:37:04;73669.91;;;-146.65;91.04
57094;BME280;42970;50.996;3.706;2023-04-01T03:39:30;73686.03;;;-146.65;91.44
57094;BME280;42970;50.996;3.706;2023-04-01T03:41:56;73694.09;;;-146.65;91.82
57094;BME280;42970;50.996;3.706;2023-04-01T03:44:21;73686.03;;;-146.65;92.02
57094;BME280;42970;50.996;3.706;2023-04-01T03:46:46;73706.19;;;-146.65;92.72
57094;BME280;42970;50.996;3.706;2023-04-01T03:49:12;73700.13;;;-146.65;92.63
57094;BME280;42970;50.996;3.706;2023-04-01T03:51:38;73696.09;;;-146.65;92.64
57094;BME280;42970;50.996;3.706;2023-04-01T03:54:03;73684.00;;;-146.65;92.08
57094;BME280;42970;50.996;3.706;2023-04-01T03:56:29;73702.16;;;-146.65;93.12
57094;BME280;42970;50.996;3.706;2023-04-01T03:58:54;73704.16;;;-146.65;93.18
57094;BME280;42970;50.996;3.706;2023-04-01T04:01:20;73710.22;;;-146.65;93.51
57094;BME280;42970;50.996;3.706;2023-04-01T04:03:45;73714.25;;;-146.65;93.30
57094;BME280;42970;50.996;3.706;2023-04-01T04:06:12;73706.19;;;-146.65;93.60
57094;BME280;42970;50.996;3.706;2023-04-01T04:08:37;73712.22;;;-146.65;93.58
57094;BME280;42970;50.996;3.706;2023-04-01T04:11:03;73702.16;;;-146.65;93.37
57094;BME280;42970;50.996;3.706;2023-04-01T04:13:28;73710.22;;;-146.65;93.22
57094;BME280;42970;50.996;3.706;2023-04-01T04:15:54;73694.09;;;-146.65;92.93
57094;BME280;42970;50.996;3.706;2023-04-01T04:18:19;73688.03;;;-146.65;92.38
57094;BME280;42970;50.996;3.706;2023-04-01T04:20:45;73686.03;;;-146.65;91.94
57094;BME280;42970;50.996;3.706;2023-04-01T04:23:13;73712.22;;;-146.65;92.64
57094;BME280;42970;50.996;3.706;2023-04-01T04:25:39;73706.19;;;-146.65;92.66
57094;BME280;42970;50.996;3.706;2023-04-01T04:28:04;73726.34;;;-146.65;92.98
57094;BME280;42970;50.996;3.706;2023-04-01T04:30:29;73738.44;;;-146.65;92.98
57094;BME280;42970;50.996;3.706;2023-04-01T04:32:55;73748.53;;;-146.65;92.96
57094;BME280;42970;50.996;3.706;2023-04-01T04:35:20;73746.50;;;-146.65;92.85
57094;BME280;42970;50.996;3.706;2023-04-01T04:37:45;73712.22;;;-146.65;91.99
57094;BME280;42970;50.996;3.706;2023-04-01T04:40:11;73718.28;;;-146.65;91.68
57094;BME280;42970;50.996;3.706;2023-04-01T04:42:36;73726.34;;;-146.65;91.56
57094;BME280;42970;50.996;3.706;2023-04-01T04:45:02;73726.34;;;-146.65;91.71
57094;BME280;42970;50.996;3.706;2023-04-01T04:47:27;73738.44;;;-146.65;91.74
57094;BME280;42970;50.996;3.706;2023-04-01T04:49:53;73734.41;;;-146.65;91.34
57094;BME280;42970;50.996;3.706;2023-04-01T04:52:18;73718.28;;;-146.65;91.34
57094;BME280;42970;50.996;3.706;2023-04-01T04:54:43;73722.31;;;-146.65;91.06
57094;BME280;42970;50.996;3.706;2023-04-01T04:57:09;73728.34;;;-146.65;91.09
57094;BME280;42970;50.996;3.706;2023-04-01T04:59:34;73744.50;;;-146.65;91.38
57094;BME280;42970;50.996;3.706;2023-04-01T05:01:59;73742.47;;;-146.65;90.94
57094;BME280;42970;50.996;3.706;2023-04-01T05:04:24;73750.53;;;-146.65;91.17
57094;BME280;42970;50.996;3.706;2023-04-01T05:06:50;73724.31;;;-146.65;90.76
57094;BME280;42970;50.996;3.706;2023-04-01T05:09:16;73754.56;;;-146.65;90.66
57094;BME280;42970;50.996;3.706;2023-04-01T05:11:42;73778.75;;;-146.65;91.59
57094;BME280;42970;50.996;3.706;2023-04-01T05:14:11;73807.00;;;-146.65;92.11
57094;BME280;42970;50.996;3.706;2023-04-01T05:16:37;73802.97;;;-146.65;92.19
57094;BME280;42970;50.996;3.706;2023-04-01T05:19:02;73784.81;;;-146.65;91.62
57094;BME280;42970;50.996;3.706;2023-04-01T05:21:27;73802.97;;;-146.65;91.54
57094;BME280;42970;50.996;3.706;2023-04-01T05:23:52;73819.09;;;-146.65;92.07
57094;BME280;42970;50.996;3.706;2023-04-01T05:26:18;73796.91;;;-146.65;91.54
57094;BME280;42970;50.996;3.706;2023-04-01T05:28:43;73786.84;;;-146.65;91.09
57094;BME280;42970;50.996;3.706;2023-04-01T05:31:08;73804.97;;;-146.65;91.40
57094;BME280;42970;50.996;3.706;2023-04-01T05:33:34;73776.75;;;-146.65;90.90
57094;BME280;42970;50.996;3.706;2023-04-01T05:36:10;73786.84;;;-146.65;91.09
57094;BME280;42970;50.996;3.706;2023-04-01T05:38:35;73798.94;;;-146.65;90.93
57094;BME280;42970;50.996;3.706;2023-04-01T05:41:01;73786.84;;;-146.65;91.14
57094;BME280;42970;50.996;3.706;2023-04-01T05:43:27;73807.00;;;-146.65;91.26
57094;BME280;42970;50.996;3.706;2023-04-01T05:45:52;73807.00;;;-146.65;90.94
57094;BME280;42970;50.996;3.706;2023-04-01T05:48:18;73766.66;;;-146.65;89.90
57094;BME280;42970;50.996;3.706;2023-04-01T05:50:43;73794.91;;;-146.65;90.57
57094;BME280;42970;50.996;3.706;2023-04-01T05:53:08;73796.91;;;-146.65;90.27
57094;BME280;42970;50.996;3.706;2023-04-01T05:55:34;73802.97;;;-146.65;90.65
57094;BME280;42970;50.996;3.706;2023-04-01T05:58:00;73788.84;;;-146.65;90.41
57094;BME280;42970;50.996;3.706;2023-04-01T06:00:25;73815.06;;;-146.65;90.44
57094;BME280;42970;50.996;3.706;2023-04-01T06:02:50;73804.97;;;-146.65;90.76
57094;BME280;42970;50.996;3.706;2023-04-01T06:05:18;73839.25;;;-146.65;91.72
57094;BME280;42970;50.996;3.706;2023-04-01T06:07:44;73839.25;;;-146.65;91.55
57094;BME280;42970;50.996;3.706;2023-04-01T06:10:11;73811.03;;;-146.65;91.06
57094;BME280;42970;50.996;3.706;2023-04-01T06:15:12;73851.34;;;-146.65;91.54
57094;BME280;42970;50.996;3.706;2023-04-01T06:25:42;73841.28;;;-146.65;90.70
57094;BME280;42970;50.996;3.706;2023-04-01T06:28:36;73833.19;;;-146.65;90.29
57094;BME280;42970;50.996;3.706;2023-04-01T06:46:23;73829.16;;;-146.65;90.21
57094;BME280;42970;50.996;3.706;2023-04-01T06:54:17;73855.38;;;-146.65;90.74
57094;BME280;42970;50.996;3.706;2023-04-01T06:56:44;73871.50;;;-146.65;90.99
57094;BME280;42970;50.996;3.706;2023-04-01T06:59:17;73869.50;;;-146.65;90.84
57094;BME280;42970;50.996;3.706;2023-04-01T07:02:29;73889.66;;;-146.65;91.06
57094;BME280;42970;50.996;3.706;2023-04-01T07:04:34;73903.78;;;-146.65;91.15
57094;BME280;42970;50.996;3.706;2023-04-01T07:07:05;73877.56;;;-146.65;90.37
57094;BME280;42970;50.996;3.706;2023-04-01T07:09:38;73873.53;;;-146.65;90.25
57094;BME280;42970;50.996;3.706;2023-04-01T07:12:41;73873.53;;;-146.65;90.59
57094;BME280;42970;50.996;3.706;2023-04-01T07:14:58;73889.66;;;-146.65;91.03
57094;BME280;42970;50.996;3.706;2023-04-01T07:17:25;73853.38;;;-146.65;90.39
57094;BME280;42970;50.996;3.706;2023-04-01T07:22:26;73845.31;;;-146.65;89.83
57094;BME280;42970;50.996;3.706;2023-04-01T07:24:52;73859.41;;;-146.65;90.21
57094;BME280;42970;50.996;3.706;2023-04-01T07:27:18;73887.63;;;-146.65;90.64
57094;BME280;42970;50.996;3.706;2023-04-01T07:29:44;73851.34;;;-146.65;90.03
57094;BME280;42970;50.996;3.706;2023-04-01T07:34:37;73865.47;;;-146.65;90.43
57094;BME280;42970;50.996;3.706;2023-04-01T07:37:14;73887.63;;;-146.65;91.22
57094;BME280;42970;50.996;3.706;2023-04-01T07:40:24;73895.69;;;-146.65;91.14
57094;BME280;42970;50.996;3.706;2023-04-01T07:42:37;73897.72;;;-146.65;91.20
57094;BME280;42970;50.996;3.706;2023-04-01T07:45:19;73911.84;;;-146.65;91.46
57094;BME280;42970;50.996;3.706;2023-04-01T07:50:32;73889.66;;;-146.65;90.90
57094;BME280;42970;50.996;3.706;2023-04-01T08:00:24;73879.56;;;-146.65;90.00
57094;BME280;42970;50.996;3.706;2023-04-01T08:08:02;73889.66;;;-146.65;90.06
57094;BME280;42970;50.996;3.706;2023-04-01T08:15:49;73891.66;;;-146.65;90.11
57094;BME280;42970;50.996;3.706;2023-04-01T08:20:53;73863.44;;;-146.65;89.23
57094;BME280;42970;50.996;3.706;2023-04-01T08:29:08;73911.84;;;-146.65;89.72
57094;BME280;42970;50.996;3.706;2023-04-01T08:34:30;73927.97;;;-146.65;88.97
57094;BME280;42970;50.996;3.706;2023-04-01T08:37:02;73915.88;;;-146.65;89.05
57094;BME280;42970;50.996;3.706;2023-04-01T08:39:34;73907.81;;;-146.65;88.83
57094;BME280;42970;50.996;3.706;2023-04-01T08:42:05;73907.81;;;-146.65;88.55
57094;BME280;42970;50.996;3.706;2023-04-01T08:53:00;73932.00;;;-146.65;88.53
57094;BME280;42970;50.996;3.706;2023-04-01T08:55:51;73903.78;;;-146.65;88.28
57094;BME280;42970;50.996;3.706;2023-04-01T09:09:43;73883.59;;;-146.65;87.01
57094;BME280;42970;50.996;3.706;2023-04-01T09:14:07;73899.75;;;-146.65;87.28
57094;BME280;42970;50.996;3.706;2023-04-01T09:19:21;73923.94;;;-146.65;87.48
57094;BME280;42970;50.996;3.706;2023-04-01T09:29:51;73950.13;;;-146.65;88.08
57094;BME280;42970;50.996;3.706;2023-04-01T09:32:39;73893.69;;;-146.65;86.97
57094;BME280;42970;50.996;3.706;2023-04-01T09:40:33;73964.25;;;-146.65;88.49
57094;BME280;42970;50.996;3.706;2023-04-01T09:45:44;73929.97;;;-146.65;87.59
57094;BME280;42970;50.996;3.706;2023-04-01T09:48:24;73956.19;;;-146.65;88.13
57094;BME280;42970;50.996;3.706;2023-04-01T10:01:03;73970.31;;;-146.65;88.63
57094;BME280;42970;50.996;3.706;2023-04-01T10:22:29;74016.69;;;-146.65;87.79
57094;BME280;42970;50.996;3.706;2023-04-01T10:25:04;74000.53;;;-146.65;87.63
57094;BME280;42970;50.996;3.706;2023-04-01T10:43:09;74022.72;;;-146.65;88.26
57094;BME280;42970;50.996;3.706;2023-04-01T10:48:18;74000.53;;;-146.65;88.20
57094;BME280;42970;50.996;3.706;2023-04-01T11:19:29;74002.56;;;-146.65;88.34
57094;BME280;42970;50.996;3.706;2023-04-01T11:30:10;73962.25;;;-146.65;87.66
57094;BME280;42970;50.996;3.706;2023-04-01T12:06:05;74079.19;;;-146.65;89.61
57094;BME280;42970;50.996;3.706;2023-04-01T12:16:32;74063.06;;;-146.65;89.38
57094;BME280;42970;50.996;3.706;2023-04-01T12:21:52;74085.22;;;-146.65;90.18
57094;BME280;42970;50.996;3.706;2023-04-01T12:37:59;74020.72;;;-146.65;88.65
57094;BME280;42970;50.996;3.706;2023-04-01T12:40:36;74032.81;;;-146.65;88.65
57094;BME280;42970;50.996;3.706;2023-04-01T12:45:40;74081.19;;;-146.65;88.44
57094;BME280;42970;50.996;3.706;2023-04-01T12:56:12;74091.28;;;-146.65;89.24
57094;BME280;42970;50.996;3.706;2023-04-01T12:58:55;74079.19;;;-146.65;89.03
57094;BME280;42970;50.996;3.706;2023-04-01T13:19:51;74117.50;;;-146.65;87.87
57094;BME280;42970;50.996;3.706;2023-04-01T13:22:23;74161.84;;;-146.65;88.81
57094;BME280;42970;50.996;3.706;2023-04-01T13:25:00;74167.91;;;-146.65;88.22
57094;BME280;42970;50.996;3.706;2023-04-01T13:27:50;74177.97;;;-146.65;88.85
57094;BME280;42970;50.996;3.706;2023-04-01T13:30:21;74143.72;;;-146.65;88.39
57094;BME280;42970;50.996;3.706;2023-04-01T13:33:11;74159.84;;;-146.65;87.96
57094;BME280;42970;50.996;3.706;2023-04-01T13:59:25;74186.06;;;-146.65;88.56
57094;BME280;42970;50.996;3.706;2023-04-01T14:37:48;74190.09;;;-146.65;88.48
57094;BME280;42970;50.996;3.706;2023-04-01T14:40:26;74184.03;;;-146.65;88.96
57094;BME280;42970;50.996;3.706;2023-04-01T14:42:55;74228.41;;;-146.65;89.41
57094;BME280;42970;50.996;3.706;2023-04-01T14:47:53;74222.34;;;-146.65;89.80
57094;BME280;42970;50.996;3.706;2023-04-01T14:50:30;74222.34;;;-146.65;89.59
57094;BME280;42970;50.996;3.706;2023-04-01T15:00:40;74216.28;;;-146.65;90.16
57094;BME280;42970;50.996;3.706;2023-04-01T15:05:49;74258.63;;;-146.65;90.04
57094;BME280;42970;50.996;3.706;2023-04-01T15:13:21;74252.59;;;-146.65;90.14
57094;BME280;42970;50.996;3.706;2023-04-01T15:16:05;74238.47;;;-146.65;89.71
57094;BME280;42970;50.996;3.706;2023-04-01T15:29:23;74238.47;;;-146.65;89.61
57094;BME280;42970;50.996;3.706;2023-04-01T15:44:44;74216.28;;;-146.65;89.16
57094;BME280;42970;50.996;3.706;2023-04-01T15:49:54;74238.47;;;-146.65;88.72
57094;BME280;42970;50.996;3.706;2023-04-01T15:52:39;74264.69;;;-146.65;89.76
57094;BME280;42970;50.996;3.706;2023-04-01T15:55:23;74274.78;;;-146.65;90.17
57094;BME280;42970;50.996;3.706;2023-04-01T16:01:12;74276.78;;;-146.65;89.77
57094;BME280;42970;50.996;3.706;2023-04-01T16:06:01;74258.63;;;-146.65;88.84
57094;BME280;42970;50.996;3.706;2023-04-01T16:08:47;74280.81;;;-146.65;89.48
57094;BME280;42970;50.996;3.706;2023-04-01T16:19:07;74264.69;;;-146.65;89.57
57094;BME280;42970;50.996;3.706;2023-04-01T16:32:23;74290.91;;;-146.65;89.91
57094;BME280;42970;50.996;3.706;2023-04-01T16:47:49;74274.78;;;-146.65;89.36
57094;BME280;42970;50.996;3.706;2023-04-01T16:50:19;74298.97;;;-146.65;89.84
57094;BME280;42970;50.996;3.706;2023-04-01T16:55:41;74329.22;;;-146.65;91.32
57094;BME280;42970;50.996;3.706;2023-04-01T16:58:08;74359.47;;;-146.65;91.86
57094;BME280;42970;50.996;3.706;2023-04-01T17:00:44;74361.47;;;-146.65;91.92
57094;BME280;42970;50.996;3.706;2023-04-01T17:03:13;74351.41;;;-146.65;92.34
57094;BME280;42970;50.996;3.706;2023-04-01T17:11:12;74351.41;;;-146.65;92.29
57094;BME280;42970;50.996;3.706;2023-04-01T17:13:46;74383.66;;;-146.65;92.68
57094;BME280;42970;50.996;3.706;2023-04-01T17:16:21;74355.44;;;-146.65;92.73
57094;BME280;42970;50.996;3.706;2023-04-01T17:22:07;74393.75;;;-146.65;93.44
57094;BME280;42970;50.996;3.706;2023-04-01T17:27:35;74367.53;;;-146.65;91.88
57094;BME280;42970;50.996;3.706;2023-04-01T17:30:15;74375.59;;;-146.65;92.69
57094;BME280;42970;50.996;3.706;2023-04-01T17:38:17;74395.75;;;-146.65;91.84
57094;BME280;42970;50.996;3.706;2023-04-01T17:46:02;74383.66;;;-146.65;90.11
57094;BME280;42970;50.996;3.706;2023-04-01T17:53:28;74432.06;;;-146.65;90.54
57094;BME280;42970;50.996;3.706;2023-04-01T17:56:08;74458.25;;;-146.65;91.51
57094;BME280;42970;50.996;3.706;2023-04-01T18:04:10;74440.13;;;-146.65;90.33
57094;BME280;42970;50.996;3.706;2023-04-01T18:06:46;74438.09;;;-146.65;90.11
57094;BME280;42970;50.996;3.706;2023-04-01T18:24:56;74502.63;;;-146.65;89.91
57094;BME280;42970;50.996;3.706;2023-04-01T18:27:28;74464.31;;;-146.65;89.21
57094;BME280;42970;50.996;3.706;2023-04-01T18:30:03;74472.38;;;-146.65;89.29
57094;BME280;42970;50.996;3.706;2023-04-01T18:32:35;74470.38;;;-146.65;89.50
57094;BME280;42970;50.996;3.706;2023-04-01T18:40:02;74492.56;;;-146.65;89.38
57094;BME280;42970;50.996;3.706;2023-04-01T18:43:39;74498.59;;;-146.65;89.22
57094;BME280;42970;50.996;3.706;2023-04-01T18:45:33;74502.63;;;-146.65;89.51
57094;BME280;42970;50.996;3.706;2023-04-01T18:48:11;74484.47;;;-146.65;88.68
57094;BME280;42970;50.996;3.706;2023-04-01T18:50:43;74512.72;;;-146.65;88.64
57094;BME280;42970;50.996;3.706;2023-04-01T18:55:54;74532.88;;;-146.65;89.96
57094;BME280;42970;50.996;3.706;2023-04-01T19:01:15;74504.66;;;-146.65;89.48
57094;BME280;42970;50.996;3.706;2023-04-01T19:03:48;74563.13;;;-146.65;90.46
57094;BME280;42970;50.996;3.706;2023-04-01T19:06:19;74518.75;;;-146.65;89.28
57094;BME280;42970;50.996;3.706;2023-04-01T19:08:46;74532.88;;;-146.65;89.61
57094;BME280;42970;50.996;3.706;2023-04-01T19:13:52;74551.03;;;-146.65;89.38
57094;BME280;42970;50.996;3.706;2023-04-01T19:19:24;74530.88;;;-146.65;88.28
57094;BME280;42970;50.996;3.706;2023-04-01T19:21:57;74536.91;;;-146.65;88.81
57094;BME280;42970;50.996;3.706;2023-04-01T19:24:43;74528.84;;;-146.65;88.69
57094;BME280;42970;50.996;3.706;2023-04-01T19:27:18;74536.91;;;-146.65;88.64
57094;BME280;42970;50.996;3.706;2023-04-01T19:30:02;74547.00;;;-146.65;89.08
57094;BME280;42970;50.996;3.706;2023-04-01T19:32:35;74591.34;;;-146.65;89.34
57094;BME280;42970;50.996;3.706;2023-04-01T19:45:44;74553.03;;;-146.65;88.14
57094;BME280;42970;50.996;3.706;2023-04-01T19:53:27;74549.00;;;-146.65;88.60
57094;BME280;42970;50.996;3.706;2023-04-01T20:04:30;74617.56;;;-146.65;89.61
57094;BME280;42970;50.996;3.706;2023-04-01T20:07:07;74625.63;;;-146.65;90.23
57094;BME280;42970;50.996;3.706;2023-04-01T20:14:40;74593.38;;;-146.65;88.74
57094;BME280;42970;50.996;3.706;2023-04-01T20:25:17;74643.78;;;-146.65;90.34
57094;BME280;42970;50.996;3.706;2023-04-01T20:30:23;74665.97;;;-146.65;90.64
57094;BME280;42970;50.996;3.706;2023-04-01T20:35:51;74641.78;;;-146.65;89.88
57094;BME280;42970;50.996;3.706;2023-04-01T20:46:22;74665.97;;;-146.65;90.24
57094;BME280;42970;50.996;3.706;2023-04-01T20:51:35;74684.13;;;-146.65;90.82
57094;BME280;42970;50.996;3.706;2023-04-01T20:56:41;74694.22;;;-146.65;91.16
57094;BME280;42970;50.996;3.706;2023-04-01T20:59:28;74690.16;;;-146.65;91.37
57094;BME280;42970;50.996;3.706;2023-04-01T21:05:00;74698.25;;;-146.65;90.98
57094;BME280;42970;50.996;3.706;2023-04-01T21:07:34;74686.13;;;-146.65;90.78
57094;BME280;42970;50.996;3.706;2023-04-01T21:12:34;74678.06;;;-146.65;90.78
57094;BME280;42970;50.996;3.706;2023-04-01T21:17:58;74708.31;;;-146.65;90.85
57094;BME280;42970;50.996;3.706;2023-04-01T21:20:40;74676.06;;;-146.65;90.09
57094;BME280;42970;50.996;3.706;2023-04-01T21:25:39;74674.03;;;-146.65;89.92
57094;BME280;42970;50.996;3.706;2023-04-01T21:28:20;74714.38;;;-146.65;91.09
57094;BME280;42970;50.996;3.706;2023-04-01T21:30:57;74710.34;;;-146.65;91.09
57094;BME280;42970;50.996;3.706;2023-04-01T22:00:09;74736.56;;;-146.65;90.44
57094;BME280;42970;50.996;3.706;2023-04-01T22:05:28;74706.31;;;-146.65;89.00
57094;BME280;42970;50.996;3.706;2023-04-01T22:10:45;74742.59;;;-146.65;89.80
57094;BME280;42970;50.996;3.706;2023-04-01T22:18:38;74754.69;;;-146.65;90.22
57094;BME280;42970;50.996;3.706;2023-04-01T22:26:33;74778.91;;;-146.65;89.91
57094;BME280;42970;50.996;3.706;2023-04-01T22:31:29;74724.47;;;-146.65;88.49
57094;BME280;42970;50.996;3.706;2023-04-01T22:34:22;74774.88;;;-146.65;89.60
57094;BME280;42970;50.996;3.706;2023-04-01T22:39:55;74758.75;;;-146.65;89.16
57094;BME280;42970;50.996;3.706;2023-04-01T22:42:30;74752.69;;;-146.65;88.23
57094;BME280;42970;50.996;3.706;2023-04-01T22:53:06;74807.13;;;-146.65;89.35
57094;BME280;42970;50.996;3.706;2023-04-01T22:55:38;74789.00;;;-146.65;88.63
57094;BME280;42970;50.996;3.706;2023-04-01T22:58:05;74762.78;;;-146.65;87.96
57094;BME280;42970;50.996;3.706;2023-04-01T23:00:34;74762.78;;;-146.65;87.64
57094;BME280;42970;50.996;3.706;2023-04-01T23:05:25;74791.00;;;-146.65;88.60
57094;BME280;42970;50.996;3.706;2023-04-01T23:08:06;74791.00;;;-146.65;88.05
57094;BME280;42970;50.996;3.706;2023-04-01T23:13:02;74782.94;;;-146.65;87.45
57094;BME280;42970;50.996;3.706;2023-04-01T23:15:50;74815.19;;;-146.65;87.88
57094;BME280;42970;50.996;3.706;2023-04-01T23:26:08;74813.19;;;-146.65;88.71
57094;BME280;42970;50.996;3.706;2023-04-01T23:28:40;74807.13;;;-146.65;87.77
57094;BME280;42970;50.996;3.706;2023-04-01T23:34:21;74801.09;;;-146.65;87.95
57094;BME280;42970;50.996;3.706;2023-04-01T23:36:48;74815.19;;;-146.65;87.26
57094;BME280;42970;50.996;3.706;2023-04-01T23:41:46;74801.09;;;-146.65;86.71
57094;BME280;42970;50.996;3.706;2023-04-01T23:44:12;74827.31;;;-146.65;87.97
57094;BME280;42970;50.996;3.706;2023-04-01T23:46:39;74851.50;;;-146.65;88.30
57094;BME280;42970;50.996;3.706;2023-04-01T23:49:05;74855.53;;;-146.65;88.17